sensor_id;sensor_type;location;lat;lon;timestamp;P1;durP1;ratioP1;P2;durP2;ratioP2
21245;SDS011;10781;50.928;4.440;2023-10-13T00:01:24;16.77;;;11.63;;
21245;SDS011;10781;50.928;4.440;2023-10-13T00:03:50;17.63;;;11.80;;
21245;SDS011;10781;50.928;4.440;2023-10-13T00:06:19;17.48;;;11.18;;
21245;SDS011;10781;50.928;4.440;2023-10-13T00:08:45;16.13;;;11.60;;
21245;SDS011;10781;50.928;4.440;2023-10-13T00:11:11;19.77;;;12.07;;
21245;SDS011;10781;50.928;4.440;2023-10-13T00:13:40;22.95;;;12.63;;
21245;SDS011;10781;50.928;4.440;2023-10-13T00:16:20;20.02;;;12.65;;
21245;SDS011;10781;50.928;4.440;2023-10-13T00:18:50;17.85;;;12.23;;
21245;SDS011;10781;50.928;4.440;2023-10-13T00:21:19;18.98;;;12.63;;
21245;SDS011;10781;50.928;4.440;2023-10-13T00:23:56;20.85;;;12.93;;
21245;SDS011;10781;50.928;4.440;2023-10-13T00:26:25;20.20;;;12.93;;
21245;SDS011;10781;50.928;4.440;2023-10-13T00:28:59;20.70;;;13.07;;
21245;SDS011;10781;50.928;4.440;2023-10-13T00:31:37;21.27;;;13.38;;
21245;SDS011;10781;50.928;4.440;2023-10-13T00:34:09;19.35;;;13.30;;
21245;SDS011;10781;50.928;4.440;2023-10-13T00:36:44;20.63;;;13.38;;
21245;SDS011;10781;50.928;4.440;2023-10-13T00:39:14;23.30;;;13.23;;
21245;SDS011;10781;50.928;4.440;2023-10-13T00:41:43;20.38;;;14.32;;
21245;SDS011;10781;50.928;4.440;2023-10-13T00:44:24;21.08;;;14.77;;
21245;SDS011;10781;50.928;4.440;2023-10-13T00:47:09;22.67;;;15.13;;
21245;SDS011;10781;50.928;4.440;2023-10-13T00:49:41;23.33;;;14.23;;
21245;SDS011;10781;50.928;4.440;2023-10-13T00:52:12;29.83;;;15.68;;
21245;SDS011;10781;50.928;4.440;2023-10-13T00:54:40;22.65;;;15.18;;
21245;SDS011;10781;50.928;4.440;2023-10-13T00:57:13;23.92;;;14.88;;
21245;SDS011;10781;50.928;4.440;2023-10-13T00:59:52;22.15;;;15.45;;
21245;SDS011;10781;50.928;4.440;2023-10-13T01:02:19;25.05;;;16.23;;
21245;SDS011;10781;50.928;4.440;2023-10-13T01:05:00;27.08;;;15.82;;
21245;SDS011;10781;50.928;4.440;2023-10-13T01:07:30;22.63;;;15.25;;
21245;SDS011;10781;50.928;4.440;2023-10-13T01:09:55;25.52;;;15.07;;
21245;SDS011;10781;50.928;4.440;2023-10-13T01:12:21;23.02;;;15.77;;
21245;SDS011;10781;50.928;4.440;2023-10-13T01:14:50;26.95;;;16.02;;
21245;SDS011;10781;50.928;4.440;2023-10-13T01:17:16;25.15;;;15.77;;
21245;SDS011;10781;50.928;4.440;2023-10-13T01:19:41;25.13;;;16.15;;
21245;SDS011;10781;50.928;4.440;2023-10-13T01:22:07;21.45;;;15.95;;
21245;SDS011;10781;50.928;4.440;2023-10-13T01:24:34;24.88;;;16.55;;
21245;SDS011;10781;50.928;4.440;2023-10-13T01:27:00;23.38;;;15.93;;
21245;SDS011;10781;50.928;4.440;2023-10-13T01:29:42;27.48;;;15.60;;
21245;SDS011;10781;50.928;4.440;2023-10-13T01:32:13;25.10;;;16.42;;
21245;SDS011;10781;50.928;4.440;2023-10-13T01:34:40;25.02;;;16.75;;
21245;SDS011;10781;50.928;4.440;2023-10-13T01:37:10;25.55;;;16.55;;
21245;SDS011;10781;50.928;4.440;2023-10-13T01:39:36;31.02;;;16.13;;
21245;SDS011;10781;50.928;4.440;2023-10-13T01:42:02;28.83;;;18.33;;
21245;SDS011;10781;50.928;4.440;2023-10-13T01:44:28;28.92;;;18.02;;
21245;SDS011;10781;50.928;4.440;2023-10-13T01:46:55;30.25;;;18.38;;
21245;SDS011;10781;50.928;4.440;2023-10-13T01:49:31;28.95;;;18.60;;
21245;SDS011;10781;50.928;4.440;2023-10-13T01:52:06;27.30;;;19.05;;
21245;SDS011;10781;50.928;4.440;2023-10-13T01:54:36;28.33;;;17.98;;
21245;SDS011;10781;50.928;4.440;2023-10-13T01:57:05;29.35;;;18.17;;
21245;SDS011;10781;50.928;4.440;2023-10-13T01:59:39;29.98;;;19.02;;
21245;SDS011;10781;50.928;4.440;2023-10-13T02:02:14;29.13;;;18.88;;
21245;SDS011;10781;50.928;4.440;2023-10-13T02:04:44;25.50;;;17.60;;
21245;SDS011;10781;50.928;4.440;2023-10-13T02:07:21;37.65;;;26.85;;
21245;SDS011;10781;50.928;4.440;2023-10-13T02:09:51;23.45;;;17.45;;
21245;SDS011;10781;50.928;4.440;2023-10-13T02:12:19;25.55;;;17.55;;
21245;SDS011;10781;50.928;4.440;2023-10-13T02:14:52;25.23;;;16.67;;
21245;SDS011;10781;50.928;4.440;2023-10-13T02:17:18;26.30;;;16.80;;
21245;SDS011;10781;50.928;4.440;2023-10-13T02:19:46;26.83;;;20.00;;
21245;SDS011;10781;50.928;4.440;2023-10-13T02:22:12;22.20;;;15.02;;
21245;SDS011;10781;50.928;4.440;2023-10-13T02:24:50;21.13;;;13.95;;
21245;SDS011;10781;50.928;4.440;2023-10-13T02:27:17;19.00;;;13.15;;
21245;SDS011;10781;50.928;4.440;2023-10-13T02:29:49;19.92;;;13.23;;
21245;SDS011;10781;50.928;4.440;2023-10-13T02:32:15;22.65;;;13.60;;
21245;SDS011;10781;50.928;4.440;2023-10-13T02:34:46;21.45;;;13.57;;
21245;SDS011;10781;50.928;4.440;2023-10-13T02:37:12;17.85;;;12.05;;
21245;SDS011;10781;50.928;4.440;2023-10-13T02:39:39;19.65;;;12.02;;
21245;SDS011;10781;50.928;4.440;2023-10-13T02:42:08;16.92;;;11.77;;
21245;SDS011;10781;50.928;4.440;2023-10-13T02:44:41;21.52;;;12.30;;
21245;SDS011;10781;50.928;4.440;2023-10-13T02:47:11;21.67;;;12.30;;
21245;SDS011;10781;50.928;4.440;2023-10-13T02:49:39;19.08;;;11.63;;
21245;SDS011;10781;50.928;4.440;2023-10-13T02:52:11;17.25;;;11.57;;
21245;SDS011;10781;50.928;4.440;2023-10-13T02:54:38;21.33;;;12.05;;
21245;SDS011;10781;50.928;4.440;2023-10-13T02:57:22;19.85;;;11.70;;
21245;SDS011;10781;50.928;4.440;2023-10-13T02:59:48;17.23;;;10.60;;
21245;SDS011;10781;50.928;4.440;2023-10-13T03:02:36;17.42;;;10.85;;
21245;SDS011;10781;50.928;4.440;2023-10-13T03:05:09;16.63;;;10.85;;
21245;SDS011;10781;50.928;4.440;2023-10-13T03:07:38;22.33;;;11.30;;
21245;SDS011;10781;50.928;4.440;2023-10-13T03:10:10;19.15;;;11.13;;
21245;SDS011;10781;50.928;4.440;2023-10-13T03:12:36;20.45;;;11.80;;
21245;SDS011;10781;50.928;4.440;2023-10-13T03:15:03;19.75;;;10.60;;
21245;SDS011;10781;50.928;4.440;2023-10-13T03:17:43;18.30;;;11.10;;
21245;SDS011;10781;50.928;4.440;2023-10-13T03:20:13;16.75;;;11.43;;
21245;SDS011;10781;50.928;4.440;2023-10-13T03:22:44;18.45;;;10.73;;
21245;SDS011;10781;50.928;4.440;2023-10-13T03:25:10;19.23;;;11.10;;
21245;SDS011;10781;50.928;4.440;2023-10-13T03:27:43;19.50;;;10.90;;
21245;SDS011;10781;50.928;4.440;2023-10-13T03:30:17;18.17;;;10.30;;
21245;SDS011;10781;50.928;4.440;2023-10-13T03:32:45;15.57;;;9.65;;
21245;SDS011;10781;50.928;4.440;2023-10-13T03:35:13;22.48;;;10.10;;
21245;SDS011;10781;50.928;4.440;2023-10-13T03:37:49;19.40;;;11.13;;
21245;SDS011;10781;50.928;4.440;2023-10-13T03:40:18;18.90;;;10.95;;
21245;SDS011;10781;50.928;4.440;2023-10-13T03:42:45;21.17;;;10.80;;
21245;SDS011;10781;50.928;4.440;2023-10-13T03:45:29;20.40;;;11.57;;
21245;SDS011;10781;50.928;4.440;2023-10-13T03:50:38;23.33;;;11.70;;
21245;SDS011;10781;50.928;4.440;2023-10-13T03:53:22;22.92;;;11.18;;
21245;SDS011;10781;50.928;4.440;2023-10-13T03:55:50;20.52;;;10.27;;
21245;SDS011;10781;50.928;4.440;2023-10-13T03:58:33;18.63;;;10.73;;
21245;SDS011;10781;50.928;4.440;2023-10-13T04:01:00;19.88;;;11.23;;
21245;SDS011;10781;50.928;4.440;2023-10-13T04:03:25;21.38;;;11.15;;
21245;SDS011;10781;50.928;4.440;2023-10-13T04:06:06;20.35;;;10.55;;
21245;SDS011;10781;50.928;4.440;2023-10-13T04:08:33;18.02;;;11.25;;
21245;SDS011;10781;50.928;4.440;2023-10-13T04:11:07;20.15;;;10.95;;
21245;SDS011;10781;50.928;4.440;2023-10-13T04:13:52;23.58;;;11.63;;
21245;SDS011;10781;50.928;4.440;2023-10-13T04:16:36;21.58;;;11.60;;
21245;SDS011;10781;50.928;4.440;2023-10-13T04:19:06;26.98;;;11.70;;
21245;SDS011;10781;50.928;4.440;2023-10-13T04:21:32;20.90;;;11.43;;
21245;SDS011;10781;50.928;4.440;2023-10-13T04:24:06;24.05;;;11.85;;
21245;SDS011;10781;50.928;4.440;2023-10-13T04:26:42;18.40;;;10.45;;
21245;SDS011;10781;50.928;4.440;2023-10-13T04:29:31;22.15;;;10.85;;
21245;SDS011;10781;50.928;4.440;2023-10-13T04:32:20;20.20;;;10.40;;
21245;SDS011;10781;50.928;4.440;2023-10-13T04:34:56;18.75;;;10.50;;
21245;SDS011;10781;50.928;4.440;2023-10-13T04:37:54;21.10;;;10.80;;
21245;SDS011;10781;50.928;4.440;2023-10-13T04:40:26;17.77;;;9.27;;
21245;SDS011;10781;50.928;4.440;2023-10-13T04:43:00;20.13;;;9.93;;
21245;SDS011;10781;50.928;4.440;2023-10-13T04:45:52;18.30;;;9.60;;
21245;SDS011;10781;50.928;4.440;2023-10-13T04:48:20;16.95;;;9.02;;
21245;SDS011;10781;50.928;4.440;2023-10-13T04:51:04;18.80;;;8.40;;
21245;SDS011;10781;50.928;4.440;2023-10-13T04:54:08;19.60;;;8.77;;
21245;SDS011;10781;50.928;4.440;2023-10-13T04:56:50;21.25;;;8.23;;
21245;SDS011;10781;50.928;4.440;2023-10-13T04:59:46;17.48;;;8.23;;
21245;SDS011;10781;50.928;4.440;2023-10-13T05:02:31;17.48;;;9.05;;
21245;SDS011;10781;50.928;4.440;2023-10-13T05:05:12;19.30;;;8.50;;
21245;SDS011;10781;50.928;4.440;2023-10-13T05:07:42;16.05;;;7.95;;
21245;SDS011;10781;50.928;4.440;2023-10-13T05:10:28;18.63;;;8.88;;
21245;SDS011;10781;50.928;4.440;2023-10-13T05:13:12;18.75;;;8.48;;
21245;SDS011;10781;50.928;4.440;2023-10-13T05:15:57;19.60;;;8.82;;
21245;SDS011;10781;50.928;4.440;2023-10-13T05:18:41;16.80;;;9.13;;
21245;SDS011;10781;50.928;4.440;2023-10-13T05:21:26;17.40;;;8.80;;
21245;SDS011;10781;50.928;4.440;2023-10-13T05:24:10;17.60;;;8.07;;
21245;SDS011;10781;50.928;4.440;2023-10-13T05:26:54;17.98;;;8.45;;
21245;SDS011;10781;50.928;4.440;2023-10-13T05:29:39;17.88;;;8.30;;
21245;SDS011;10781;50.928;4.440;2023-10-13T05:32:24;20.85;;;7.63;;
21245;SDS011;10781;50.928;4.440;2023-10-13T05:35:08;15.68;;;7.75;;
21245;SDS011;10781;50.928;4.440;2023-10-13T05:37:53;20.23;;;8.32;;
21245;SDS011;10781;50.928;4.440;2023-10-13T05:40:37;16.55;;;8.05;;
21245;SDS011;10781;50.928;4.440;2023-10-13T05:43:21;14.13;;;7.15;;
21245;SDS011;10781;50.928;4.440;2023-10-13T05:46:06;18.92;;;7.50;;
21245;SDS011;10781;50.928;4.440;2023-10-13T05:49:07;19.95;;;7.72;;
21245;SDS011;10781;50.928;4.440;2023-10-13T05:51:37;19.08;;;7.32;;
21245;SDS011;10781;50.928;4.440;2023-10-13T05:54:12;17.05;;;7.28;;
21245;SDS011;10781;50.928;4.440;2023-10-13T05:56:39;21.27;;;7.43;;
21245;SDS011;10781;50.928;4.440;2023-10-13T05:59:23;17.20;;;7.35;;
21245;SDS011;10781;50.928;4.440;2023-10-13T06:02:08;20.50;;;7.13;;
21245;SDS011;10781;50.928;4.440;2023-10-13T06:04:53;13.35;;;6.75;;
21245;SDS011;10781;50.928;4.440;2023-10-13T06:07:37;16.33;;;7.20;;
21245;SDS011;10781;50.928;4.440;2023-10-13T06:10:21;17.88;;;6.88;;
21245;SDS011;10781;50.928;4.440;2023-10-13T06:13:06;20.00;;;7.28;;
21245;SDS011;10781;50.928;4.440;2023-10-13T06:15:50;18.30;;;6.95;;
21245;SDS011;10781;50.928;4.440;2023-10-13T06:18:34;17.33;;;7.53;;
21245;SDS011;10781;50.928;4.440;2023-10-13T06:21:19;15.57;;;7.00;;
21245;SDS011;10781;50.928;4.440;2023-10-13T06:24:05;14.30;;;6.90;;
21245;SDS011;10781;50.928;4.440;2023-10-13T06:26:50;17.83;;;7.45;;
21245;SDS011;10781;50.928;4.440;2023-10-13T06:29:34;18.85;;;7.13;;
21245;SDS011;10781;50.928;4.440;2023-10-13T06:32:00;15.57;;;6.80;;
21245;SDS011;10781;50.928;4.440;2023-10-13T06:34:29;18.20;;;7.13;;
21245;SDS011;10781;50.928;4.440;2023-10-13T06:37:13;16.02;;;6.90;;
21245;SDS011;10781;50.928;4.440;2023-10-13T06:39:55;20.20;;;7.70;;
21245;SDS011;10781;50.928;4.440;2023-10-13T06:42:23;14.60;;;6.35;;
21245;SDS011;10781;50.928;4.440;2023-10-13T06:44:52;13.15;;;6.45;;
21245;SDS011;10781;50.928;4.440;2023-10-13T06:47:24;14.82;;;6.25;;
21245;SDS011;10781;50.928;4.440;2023-10-13T06:49:50;14.85;;;6.10;;
21245;SDS011;10781;50.928;4.440;2023-10-13T06:52:19;17.25;;;6.55;;
21245;SDS011;10781;50.928;4.440;2023-10-13T06:54:50;16.35;;;6.43;;
21245;SDS011;10781;50.928;4.440;2023-10-13T06:57:15;15.50;;;6.13;;
21245;SDS011;10781;50.928;4.440;2023-10-13T06:59:48;15.80;;;6.63;;
21245;SDS011;10781;50.928;4.440;2023-10-13T07:02:14;16.63;;;5.95;;
21245;SDS011;10781;50.928;4.440;2023-10-13T07:04:58;14.75;;;5.90;;
21245;SDS011;10781;50.928;4.440;2023-10-13T07:07:32;16.30;;;6.80;;
21245;SDS011;10781;50.928;4.440;2023-10-13T07:09:58;15.82;;;5.82;;
21245;SDS011;10781;50.928;4.440;2023-10-13T07:12:24;12.73;;;6.20;;
21245;SDS011;10781;50.928;4.440;2023-10-13T07:14:53;17.45;;;6.38;;
21245;SDS011;10781;50.928;4.440;2023-10-13T07:17:47;12.60;;;5.97;;
21245;SDS011;10781;50.928;4.440;2023-10-13T07:20:19;17.48;;;6.78;;
21245;SDS011;10781;50.928;4.440;2023-10-13T07:22:52;9.95;;;5.68;;
21245;SDS011;10781;50.928;4.440;2023-10-13T07:25:27;14.70;;;6.10;;
21245;SDS011;10781;50.928;4.440;2023-10-13T07:27:57;17.45;;;5.93;;
21245;SDS011;10781;50.928;4.440;2023-10-13T07:30:26;16.65;;;6.13;;
21245;SDS011;10781;50.928;4.440;2023-10-13T07:32:52;14.05;;;5.78;;
21245;SDS011;10781;50.928;4.440;2023-10-13T07:35:20;13.20;;;5.07;;
21245;SDS011;10781;50.928;4.440;2023-10-13T07:37:49;13.30;;;5.53;;
21245;SDS011;10781;50.928;4.440;2023-10-13T07:40:18;14.13;;;5.95;;
21245;SDS011;10781;50.928;4.440;2023-10-13T07:42:51;15.90;;;5.70;;
21245;SDS011;10781;50.928;4.440;2023-10-13T07:45:17;13.68;;;5.45;;
21245;SDS011;10781;50.928;4.440;2023-10-13T07:47:47;11.80;;;5.80;;
21245;SDS011;10781;50.928;4.440;2023-10-13T07:50:13;15.88;;;5.68;;
21245;SDS011;10781;50.928;4.440;2023-10-13T07:52:39;10.25;;;6.07;;
21245;SDS011;10781;50.928;4.440;2023-10-13T07:55:27;11.80;;;5.85;;
21245;SDS011;10781;50.928;4.440;2023-10-13T07:57:57;12.25;;;5.85;;
21245;SDS011;10781;50.928;4.440;2023-10-13T08:00:24;17.27;;;6.10;;
21245;SDS011;10781;50.928;4.440;2023-10-13T08:03:14;12.80;;;6.10;;
21245;SDS011;10781;50.928;4.440;2023-10-13T08:05:39;12.57;;;5.93;;
21245;SDS011;10781;50.928;4.440;2023-10-13T08:08:21;13.70;;;5.13;;
21245;SDS011;10781;50.928;4.440;2023-10-13T08:10:50;12.30;;;5.50;;
21245;SDS011;10781;50.928;4.440;2023-10-13T08:13:20;15.50;;;5.53;;
21245;SDS011;10781;50.928;4.440;2023-10-13T08:15:47;10.25;;;5.22;;
21245;SDS011;10781;50.928;4.440;2023-10-13T08:18:13;13.68;;;5.20;;
21245;SDS011;10781;50.928;4.440;2023-10-13T08:20:58;11.02;;;5.10;;
21245;SDS011;10781;50.928;4.440;2023-10-13T08:23:29;11.30;;;5.78;;
21245;SDS011;10781;50.928;4.440;2023-10-13T08:26:14;16.35;;;5.50;;
21245;SDS011;10781;50.928;4.440;2023-10-13T08:29:01;18.27;;;5.85;;
21245;SDS011;10781;50.928;4.440;2023-10-13T08:31:49;10.82;;;4.95;;
21245;SDS011;10781;50.928;4.440;2023-10-13T08:34:29;15.75;;;5.70;;
21245;SDS011;10781;50.928;4.440;2023-10-13T08:37:04;14.50;;;4.97;;
21245;SDS011;10781;50.928;4.440;2023-10-13T08:39:51;12.10;;;5.40;;
21245;SDS011;10781;50.928;4.440;2023-10-13T08:47:51;13.43;;;5.55;;
21245;SDS011;10781;50.928;4.440;2023-10-13T08:50:45;13.60;;;5.28;;
21245;SDS011;10781;50.928;4.440;2023-10-13T08:53:27;13.88;;;5.30;;
21245;SDS011;10781;50.928;4.440;2023-10-13T08:56:03;13.30;;;5.13;;
21245;SDS011;10781;50.928;4.440;2023-10-13T08:58:40;12.35;;;5.90;;
21245;SDS011;10781;50.928;4.440;2023-10-13T09:01:36;13.05;;;5.40;;
21245;SDS011;10781;50.928;4.440;2023-10-13T09:04:13;14.88;;;5.38;;
21245;SDS011;10781;50.928;4.440;2023-10-13T09:07:04;11.30;;;5.70;;
21245;SDS011;10781;50.928;4.440;2023-10-13T09:09:31;13.82;;;5.40;;
21245;SDS011;10781;50.928;4.440;2023-10-13T09:12:23;13.50;;;5.15;;
21245;SDS011;10781;50.928;4.440;2023-10-13T09:14:56;13.20;;;5.97;;
21245;SDS011;10781;50.928;4.440;2023-10-13T09:17:30;12.60;;;5.55;;
21245;SDS011;10781;50.928;4.440;2023-10-13T09:20:02;16.13;;;5.93;;
21245;SDS011;10781;50.928;4.440;2023-10-13T09:22:50;14.05;;;5.53;;
21245;SDS011;10781;50.928;4.440;2023-10-13T09:28:23;18.13;;;6.47;;
21245;SDS011;10781;50.928;4.440;2023-10-13T09:30:53;18.10;;;5.40;;
21245;SDS011;10781;50.928;4.440;2023-10-13T09:33:24;11.45;;;5.13;;
21245;SDS011;10781;50.928;4.440;2023-10-13T09:35:58;16.23;;;5.93;;
21245;SDS011;10781;50.928;4.440;2023-10-13T09:38:27;16.40;;;6.13;;
21245;SDS011;10781;50.928;4.440;2023-10-13T09:40:56;13.82;;;5.50;;
21245;SDS011;10781;50.928;4.440;2023-10-13T09:43:27;13.95;;;6.15;;
21245;SDS011;10781;50.928;4.440;2023-10-13T09:45:58;13.43;;;5.55;;
21245;SDS011;10781;50.928;4.440;2023-10-13T09:48:39;20.13;;;6.63;;
21245;SDS011;10781;50.928;4.440;2023-10-13T09:51:12;14.57;;;5.90;;
21245;SDS011;10781;50.928;4.440;2023-10-13T09:56:27;14.43;;;5.40;;
21245;SDS011;10781;50.928;4.440;2023-10-13T10:01:33;13.35;;;5.75;;
21245;SDS011;10781;50.928;4.440;2023-10-13T10:04:13;15.15;;;5.38;;
21245;SDS011;10781;50.928;4.440;2023-10-13T10:07:00;9.70;;;5.50;;
21245;SDS011;10781;50.928;4.440;2023-10-13T10:09:27;14.93;;;6.05;;
21245;SDS011;10781;50.928;4.440;2023-10-13T10:17:28;13.85;;;5.30;;
21245;SDS011;10781;50.928;4.440;2023-10-13T10:19:55;13.48;;;5.75;;
21245;SDS011;10781;50.928;4.440;2023-10-13T10:22:35;16.30;;;5.82;;
21245;SDS011;10781;50.928;4.440;2023-10-13T10:25:04;15.38;;;6.30;;
21245;SDS011;10781;50.928;4.440;2023-10-13T10:27:57;15.02;;;5.90;;
21245;SDS011;10781;50.928;4.440;2023-10-13T10:30:24;15.55;;;6.00;;
21245;SDS011;10781;50.928;4.440;2023-10-13T10:32:53;16.20;;;5.55;;
21245;SDS011;10781;50.928;4.440;2023-10-13T10:35:47;14.30;;;5.80;;
21245;SDS011;10781;50.928;4.440;2023-10-13T10:38:24;14.85;;;5.85;;
21245;SDS011;10781;50.928;4.440;2023-10-13T10:41:01;15.68;;;5.60;;
21245;SDS011;10781;50.928;4.440;2023-10-13T10:46:26;16.90;;;5.65;;
21245;SDS011;10781;50.928;4.440;2023-10-13T10:48:52;16.88;;;5.82;;
21245;SDS011;10781;50.928;4.440;2023-10-13T10:51:26;11.43;;;5.65;;
21245;SDS011;10781;50.928;4.440;2023-10-13T10:54:17;13.80;;;5.65;;
21245;SDS011;10781;50.928;4.440;2023-10-13T10:56:44;17.00;;;5.85;;
21245;SDS011;10781;50.928;4.440;2023-10-13T10:59:17;14.52;;;5.93;;
21245;SDS011;10781;50.928;4.440;2023-10-13T11:01:45;15.13;;;5.93;;
21245;SDS011;10781;50.928;4.440;2023-10-13T11:04:16;17.58;;;6.13;;
21245;SDS011;10781;50.928;4.440;2023-10-13T11:06:55;14.05;;;5.80;;
21245;SDS011;10781;50.928;4.440;2023-10-13T11:09:26;22.85;;;6.75;;
21245;SDS011;10781;50.928;4.440;2023-10-13T11:11:55;15.82;;;6.20;;
21245;SDS011;10781;50.928;4.440;2023-10-13T11:14:29;18.38;;;5.97;;
21245;SDS011;10781;50.928;4.440;2023-10-13T11:16:56;19.02;;;5.93;;
21245;SDS011;10781;50.928;4.440;2023-10-13T11:19:39;18.02;;;5.97;;
21245;SDS011;10781;50.928;4.440;2023-10-13T11:22:16;15.55;;;6.63;;
21245;SDS011;10781;50.928;4.440;2023-10-13T11:25:00;13.50;;;5.68;;
21245;SDS011;10781;50.928;4.440;2023-10-13T11:27:38;18.90;;;6.05;;
21245;SDS011;10781;50.928;4.440;2023-10-13T11:30:16;24.25;;;6.10;;
21245;SDS011;10781;50.928;4.440;2023-10-13T11:33:03;21.30;;;6.75;;
21245;SDS011;10781;50.928;4.440;2023-10-13T11:35:33;13.68;;;6.20;;
21245;SDS011;10781;50.928;4.440;2023-10-13T11:38:17;19.80;;;6.57;;
21245;SDS011;10781;50.928;4.440;2023-10-13T11:40:57;12.60;;;6.25;;
21245;SDS011;10781;50.928;4.440;2023-10-13T11:43:49;15.20;;;5.88;;
21245;SDS011;10781;50.928;4.440;2023-10-13T11:46:17;14.00;;;6.55;;
21245;SDS011;10781;50.928;4.440;2023-10-13T11:49:02;23.30;;;6.40;;
21245;SDS011;10781;50.928;4.440;2023-10-13T11:51:48;16.35;;;6.07;;
21245;SDS011;10781;50.928;4.440;2023-10-13T11:54:18;19.88;;;5.45;;
21245;SDS011;10781;50.928;4.440;2023-10-13T11:56:47;15.13;;;6.45;;
21245;SDS011;10781;50.928;4.440;2023-10-13T11:59:14;15.23;;;6.15;;
21245;SDS011;10781;50.928;4.440;2023-10-13T12:01:43;31.63;;;9.40;;
21245;SDS011;10781;50.928;4.440;2023-10-13T12:04:31;19.33;;;6.20;;
21245;SDS011;10781;50.928;4.440;2023-10-13T12:07:08;17.02;;;5.70;;
21245;SDS011;10781;50.928;4.440;2023-10-13T12:10:13;16.13;;;5.28;;
21245;SDS011;10781;50.928;4.440;2023-10-13T12:12:58;16.55;;;5.95;;
21245;SDS011;10781;50.928;4.440;2023-10-13T12:15:30;16.95;;;6.30;;
21245;SDS011;10781;50.928;4.440;2023-10-13T12:18:03;16.92;;;6.20;;
21245;SDS011;10781;50.928;4.440;2023-10-13T12:20:30;13.27;;;5.50;;
21245;SDS011;10781;50.928;4.440;2023-10-13T12:23:00;16.17;;;5.78;;
21245;SDS011;10781;50.928;4.440;2023-10-13T12:25:40;16.13;;;6.38;;
21245;SDS011;10781;50.928;4.440;2023-10-13T12:28:25;18.83;;;5.90;;
21245;SDS011;10781;50.928;4.440;2023-10-13T12:30:56;16.10;;;6.05;;
21245;SDS011;10781;50.928;4.440;2023-10-13T12:33:29;17.08;;;5.63;;
21245;SDS011;10781;50.928;4.440;2023-10-13T12:36:05;17.80;;;5.90;;
21245;SDS011;10781;50.928;4.440;2023-10-13T12:38:35;16.15;;;5.68;;
21245;SDS011;10781;50.928;4.440;2023-10-13T12:41:16;19.67;;;5.78;;
21245;SDS011;10781;50.928;4.440;2023-10-13T12:44:06;13.13;;;5.63;;
21245;SDS011;10781;50.928;4.440;2023-10-13T12:46:50;16.42;;;6.03;;
21245;SDS011;10781;50.928;4.440;2023-10-13T12:49:35;16.80;;;5.85;;
21245;SDS011;10781;50.928;4.440;2023-10-13T12:52:11;14.77;;;5.68;;
21245;SDS011;10781;50.928;4.440;2023-10-13T12:54:48;13.93;;;5.70;;
21245;SDS011;10781;50.928;4.440;2023-10-13T12:57:26;18.83;;;5.88;;
21245;SDS011;10781;50.928;4.440;2023-10-13T12:59:55;14.90;;;5.78;;
21245;SDS011;10781;50.928;4.440;2023-10-13T13:02:21;17.05;;;5.65;;
21245;SDS011;10781;50.928;4.440;2023-10-13T13:04:50;11.57;;;5.40;;
21245;SDS011;10781;50.928;4.440;2023-10-13T13:07:24;15.60;;;5.68;;
21245;SDS011;10781;50.928;4.440;2023-10-13T13:09:55;18.38;;;5.38;;
21245;SDS011;10781;50.928;4.440;2023-10-13T13:12:23;18.02;;;5.60;;
21245;SDS011;10781;50.928;4.440;2023-10-13T13:14:50;9.65;;;4.95;;
21245;SDS011;10781;50.928;4.440;2023-10-13T13:17:20;16.55;;;5.60;;
21245;SDS011;10781;50.928;4.440;2023-10-13T13:19:48;16.02;;;5.38;;
21245;SDS011;10781;50.928;4.440;2023-10-13T13:22:14;12.18;;;5.10;;
21245;SDS011;10781;50.928;4.440;2023-10-13T13:24:41;10.70;;;4.82;;
21245;SDS011;10781;50.928;4.440;2023-10-13T13:27:11;14.70;;;5.10;;
21245;SDS011;10781;50.928;4.440;2023-10-13T13:29:42;9.40;;;5.35;;
21245;SDS011;10781;50.928;4.440;2023-10-13T13:32:11;14.35;;;5.10;;
21245;SDS011;10781;50.928;4.440;2023-10-13T13:34:47;11.05;;;5.28;;
21245;SDS011;10781;50.928;4.440;2023-10-13T13:37:39;13.52;;;5.30;;
21245;SDS011;10781;50.928;4.440;2023-10-13T13:40:07;15.93;;;5.50;;
21245;SDS011;10781;50.928;4.440;2023-10-13T13:42:47;12.27;;;5.38;;
21245;SDS011;10781;50.928;4.440;2023-10-13T13:45:16;14.70;;;5.10;;
21245;SDS011;10781;50.928;4.440;2023-10-13T13:47:49;12.95;;;5.10;;
21245;SDS011;10781;50.928;4.440;2023-10-13T13:50:22;16.60;;;5.20;;
21245;SDS011;10781;50.928;4.440;2023-10-13T13:52:53;10.15;;;5.05;;
21245;SDS011;10781;50.928;4.440;2023-10-13T13:55:23;16.73;;;4.97;;
21245;SDS011;10781;50.928;4.440;2023-10-13T13:57:50;14.30;;;4.60;;
21245;SDS011;10781;50.928;4.440;2023-10-13T14:00:19;13.57;;;4.82;;
21245;SDS011;10781;50.928;4.440;2023-10-13T14:03:04;9.93;;;4.60;;
21245;SDS011;10781;50.928;4.440;2023-10-13T14:05:49;11.88;;;4.93;;
21245;SDS011;10781;50.928;4.440;2023-10-13T14:08:15;15.07;;;5.03;;
21245;SDS011;10781;50.928;4.440;2023-10-13T14:10:41;15.95;;;5.00;;
21245;SDS011;10781;50.928;4.440;2023-10-13T14:13:36;11.18;;;5.00;;
21245;SDS011;10781;50.928;4.440;2023-10-13T14:16:18;10.57;;;4.88;;
21245;SDS011;10781;50.928;4.440;2023-10-13T14:18:45;11.23;;;4.97;;
21245;SDS011;10781;50.928;4.440;2023-10-13T14:21:12;8.38;;;4.80;;
21245;SDS011;10781;50.928;4.440;2023-10-13T14:23:47;13.07;;;5.10;;
21245;SDS011;10781;50.928;4.440;2023-10-13T14:26:15;11.15;;;4.82;;
21245;SDS011;10781;50.928;4.440;2023-10-13T14:28:46;12.85;;;4.90;;
21245;SDS011;10781;50.928;4.440;2023-10-13T14:31:20;11.80;;;5.60;;
21245;SDS011;10781;50.928;4.440;2023-10-13T14:33:47;12.02;;;5.40;;
21245;SDS011;10781;50.928;4.440;2023-10-13T14:36:13;12.25;;;5.07;;
21245;SDS011;10781;50.928;4.440;2023-10-13T14:38:39;13.23;;;5.18;;
21245;SDS011;10781;50.928;4.440;2023-10-13T14:41:09;14.13;;;5.25;;
21245;SDS011;10781;50.928;4.440;2023-10-13T14:43:35;15.38;;;5.72;;
21245;SDS011;10781;50.928;4.440;2023-10-13T14:46:01;11.35;;;5.18;;
21245;SDS011;10781;50.928;4.440;2023-10-13T14:48:26;11.35;;;5.60;;
21245;SDS011;10781;50.928;4.440;2023-10-13T14:50:52;10.57;;;5.93;;
21245;SDS011;10781;50.928;4.440;2023-10-13T14:53:18;13.20;;;5.63;;
21245;SDS011;10781;50.928;4.440;2023-10-13T14:55:46;15.07;;;5.90;;
21245;SDS011;10781;50.928;4.440;2023-10-13T14:58:12;10.13;;;5.45;;
21245;SDS011;10781;50.928;4.440;2023-10-13T15:00:41;16.10;;;5.53;;
21245;SDS011;10781;50.928;4.440;2023-10-13T15:03:11;10.45;;;5.30;;
21245;SDS011;10781;50.928;4.440;2023-10-13T15:05:40;11.85;;;5.60;;
21245;SDS011;10781;50.928;4.440;2023-10-13T15:08:08;14.98;;;5.30;;
21245;SDS011;10781;50.928;4.440;2023-10-13T15:10:34;11.02;;;5.20;;
21245;SDS011;10781;50.928;4.440;2023-10-13T15:13:02;9.45;;;5.32;;
21245;SDS011;10781;50.928;4.440;2023-10-13T15:15:30;14.48;;;5.03;;
21245;SDS011;10781;50.928;4.440;2023-10-13T15:17:57;9.82;;;5.03;;
21245;SDS011;10781;50.928;4.440;2023-10-13T15:20:23;13.65;;;5.68;;
21245;SDS011;10781;50.928;4.440;2023-10-13T15:22:49;12.93;;;5.05;;
21245;SDS011;10781;50.928;4.440;2023-10-13T15:25:15;14.85;;;5.57;;
21245;SDS011;10781;50.928;4.440;2023-10-13T15:27:53;8.90;;;5.00;;
21245;SDS011;10781;50.928;4.440;2023-10-13T15:30:22;14.90;;;5.82;;
21245;SDS011;10781;50.928;4.440;2023-10-13T15:32:56;9.57;;;5.20;;
21245;SDS011;10781;50.928;4.440;2023-10-13T15:35:22;14.02;;;5.10;;
21245;SDS011;10781;50.928;4.440;2023-10-13T15:37:53;9.68;;;5.07;;